createdAt,value
2024-03-16T00:03:11.031Z,11.73
2024-03-16T00:08:13.909Z,11.85
2024-03-16T00:13:16.910Z,11.73
2024-03-16T00:18:20.121Z,11.93
2024-03-16T00:23:22.907Z,11.78
2024-03-16T00:28:25.670Z,11.70
2024-03-16T00:33:28.536Z,11.37
2024-03-16T00:38:31.336Z,11.32
2024-03-16T00:43:34.049Z,11.30
2024-03-16T00:48:36.892Z,11.45
2024-03-16T00:53:42.707Z,11.90
2024-03-16T00:58:45.417Z,11.60
2024-03-16T01:03:48.253Z,12.00
2024-03-16T01:08:51.019Z,12.12
2024-03-16T01:13:53.842Z,11.98
2024-03-16T01:18:56.645Z,12.30
2024-03-16T01:23:59.535Z,12.23
2024-03-16T01:29:04.845Z,11.78
2024-03-16T01:34:07.613Z,11.65
2024-03-16T01:39:13.312Z,12.08
2024-03-16T01:44:16.456Z,11.99
2024-03-16T01:49:22.892Z,11.79
2024-03-16T01:54:25.669Z,11.96
2024-03-16T01:59:28.623Z,11.83
2024-03-16T02:04:31.350Z,11.93
2024-03-16T02:09:34.212Z,12.06
2024-03-16T02:14:36.993Z,11.91
2024-03-16T02:19:39.725Z,11.45
2024-03-16T02:24:42.579Z,11.73
2024-03-16T02:29:45.471Z,11.88
2024-03-16T02:34:48.602Z,11.90
2024-03-16T02:39:51.909Z,11.91
2024-03-16T02:44:54.668Z,11.80
2024-03-16T02:49:57.508Z,11.87
2024-03-16T02:55:00.584Z,11.96
2024-03-16T03:00:08.259Z,12.03
2024-03-16T03:05:12.601Z,11.68
2024-03-16T03:10:15.764Z,11.35
2024-03-16T03:15:19.589Z,11.08
2024-03-16T03:20:24.964Z,11.04
2024-03-16T03:25:27.730Z,10.83
2024-03-16T03:30:30.507Z,10.86
2024-03-16T03:35:33.373Z,10.63
2024-03-16T03:40:36.347Z,10.71
2024-03-16T03:45:51.200Z,10.69
2024-03-16T03:50:54.121Z,11.02
2024-03-16T03:55:56.904Z,10.81
2024-03-16T04:01:03.447Z,10.83
2024-03-16T04:06:06.434Z,10.60
2024-03-16T04:11:09.758Z,10.16
2024-03-16T04:16:15.636Z,10.52
2024-03-16T04:21:19.138Z,10.59
2024-03-16T04:26:21.927Z,10.48
2024-03-16T04:31:24.648Z,10.37
2024-03-16T04:36:27.583Z,10.37
2024-03-16T04:41:32.520Z,10.10
2024-03-16T04:46:36.797Z,10.25
2024-03-16T04:51:42.107Z,10.22
2024-03-16T04:56:44.936Z,9.88
2024-03-16T05:01:47.724Z,9.78
2024-03-16T05:06:50.564Z,9.73
2024-03-16T05:11:53.373Z,10.36
2024-03-16T05:16:56.194Z,10.38
2024-03-16T05:21:59.614Z,10.28
2024-03-16T05:27:03.095Z,11.02
2024-03-16T05:32:06.162Z,11.28
2024-03-16T05:37:09.334Z,10.78
2024-03-16T05:42:13.169Z,11.27
2024-03-16T05:47:16.125Z,10.23
2024-03-16T05:52:19.328Z,10.62
2024-03-16T05:57:22.248Z,11.20
2024-03-16T06:02:26.184Z,11.56
2024-03-16T06:07:29.724Z,11.63
2024-03-16T06:12:33.292Z,12.00
2024-03-16T06:17:36.072Z,12.06
2024-03-16T06:22:38.788Z,12.04
2024-03-16T06:27:50.601Z,11.94
2024-03-16T06:33:06.906Z,11.84
2024-03-16T06:38:09.935Z,11.98
2024-03-16T06:43:12.913Z,11.95
2024-03-16T06:48:16.606Z,12.37
2024-03-16T06:53:19.621Z,12.37
2024-03-16T06:58:22.474Z,12.29
2024-03-16T07:03:25.413Z,12.52
2024-03-16T07:08:28.212Z,12.67
2024-03-16T07:13:31.040Z,12.75
2024-03-16T07:18:34.296Z,12.95
2024-03-16T07:23:37.113Z,12.94
2024-03-16T07:28:39.894Z,13.32
2024-03-16T07:33:42.768Z,13.14
2024-03-16T07:38:46.076Z,13.20
2024-03-16T07:43:49.135Z,13.19
2024-03-16T07:48:52.144Z,12.74
2024-03-16T07:53:55.222Z,13.21
2024-03-16T07:59:00.172Z,13.25
2024-03-16T08:04:03.429Z,13.01
2024-03-16T08:09:07.440Z,12.96
2024-03-16T08:14:11.469Z,13.01
2024-03-16T08:19:16.392Z,13.19
2024-03-16T08:24:20.818Z,13.08
2024-03-16T08:29:24.318Z,12.85
2024-03-16T08:34:27.554Z,13.25
2024-03-16T08:39:30.593Z,13.51
2024-03-16T08:44:33.429Z,13.30
2024-03-16T08:49:36.330Z,13.65
2024-03-16T08:54:39.353Z,13.83
2024-03-16T08:59:42.109Z,13.77
2024-03-16T09:04:45.402Z,13.88
2024-03-16T09:09:48.323Z,14.00
2024-03-16T09:14:53.597Z,14.15
2024-03-16T09:19:58.878Z,13.89
2024-03-16T09:25:02.659Z,14.00
2024-03-16T09:30:07.382Z,13.89
2024-03-16T09:35:11.932Z,14.01
2024-03-16T09:40:16.168Z,14.05
